createdAt,value
2023-04-20T00:01:42.574Z,100025.94
2023-04-20T00:06:45.606Z,100021.88
2023-04-20T00:11:48.779Z,100015.59
2023-04-20T00:16:51.903Z,100018.09
2023-04-20T00:21:54.898Z,100012.97
2023-04-20T00:26:57.853Z,100012.25
2023-04-20T00:32:01.272Z,100006.34
2023-04-20T00:37:04.242Z,100014.38
2023-04-20T00:42:09.056Z,100018.06
2023-04-20T00:47:11.994Z,100004.19
2023-04-20T00:52:15.104Z,100007.81
2023-04-20T00:57:24.102Z,100010.06
2023-04-20T01:02:27.889Z,100014.94
2023-04-20T01:07:31.135Z,100013.56
2023-04-20T01:12:34.782Z,100010.13
2023-04-20T01:17:40.977Z,100015.34
2023-04-20T01:22:45.943Z,100000.75
2023-04-20T01:27:49.066Z,100013.13
2023-04-20T01:32:52.117Z,100004.69
2023-04-20T01:37:55.133Z,99999.69
2023-04-20T01:42:58.128Z,99999.28
2023-04-20T01:48:02.009Z,100003.34
2023-04-20T01:53:04.975Z,100004.78
2023-04-20T01:58:07.997Z,100001.44
2023-04-20T02:03:11.305Z,100000.03
2023-04-20T02:08:14.353Z,100003.25
2023-04-20T02:13:17.314Z,100002.75
2023-04-20T02:18:20.230Z,100005.66
2023-04-20T02:23:23.213Z,100002.50
2023-04-20T02:28:26.528Z,100000.13
2023-04-20T02:33:31.532Z,99996.25
2023-04-20T02:38:34.462Z,100001.00
2023-04-20T02:43:37.785Z,99998.91
2023-04-20T02:48:40.741Z,100004.59
2023-04-20T02:53:43.740Z,100007.66
2023-04-20T02:58:48.623Z,100019.47
2023-04-20T03:03:51.892Z,100017.78
2023-04-20T03:08:55.038Z,100023.34
2023-04-20T03:13:57.980Z,100026.13
2023-04-20T03:19:00.913Z,100026.41
2023-04-20T03:24:04.705Z,100016.97
2023-04-20T03:29:07.814Z,100024.19
2023-04-20T03:34:10.884Z,100022.81
2023-04-20T03:39:13.892Z,100031.00
2023-04-20T03:44:16.866Z,100034.59
2023-04-20T03:49:28.034Z,100033.78
2023-04-20T03:54:31.418Z,100046.13
2023-04-20T03:59:34.305Z,100038.22
2023-04-20T04:04:37.431Z,100034.75
2023-04-20T04:09:40.492Z,100042.09
2023-04-20T04:14:43.496Z,100037.94
2023-04-20T04:19:46.461Z,100038.75
2023-04-20T04:24:49.468Z,100048.28
2023-04-20T04:29:52.391Z,100047.19
2023-04-20T04:34:55.859Z,100043.56
2023-04-20T04:39:58.857Z,100037.00
2023-04-20T04:45:04.916Z,100041.50
2023-04-20T04:50:09.455Z,100048.56
2023-04-20T04:55:13.803Z,100049.13
2023-04-20T05:00:19.098Z,100053.91
2023-04-20T05:05:22.626Z,100054.47
2023-04-20T05:10:25.695Z,100050.47
2023-04-20T05:15:28.639Z,100053.72
2023-04-20T05:20:31.644Z,100045.13
2023-04-20T05:25:34.866Z,100060.81
2023-04-20T05:30:37.871Z,100053.06
2023-04-20T05:35:41.449Z,100059.50
2023-04-20T05:40:44.500Z,100065.94
2023-04-20T05:45:49.199Z,100071.00
2023-04-20T05:50:52.126Z,100076.91
2023-04-20T05:55:55.295Z,100079.94
2023-04-20T06:00:58.330Z,100071.22
2023-04-20T06:06:01.237Z,100072.59
2023-04-20T06:11:04.534Z,100079.91
2023-04-20T06:16:09.882Z,100075.25
2023-04-20T06:21:12.986Z,100075.91
2023-04-20T06:26:16.369Z,100073.53
2023-04-20T06:31:20.582Z,100076.81
2023-04-20T06:36:24.372Z,100075.53
2023-04-20T06:41:27.370Z,100076.72
2023-04-20T06:46:30.780Z,100078.31
2023-04-20T06:51:34.665Z,100071.88
2023-04-20T06:56:37.667Z,100071.47
2023-04-20T07:01:40.676Z,100068.47
2023-04-20T07:06:43.686Z,100072.91
2023-04-20T07:11:46.775Z,100079.22
2023-04-20T07:16:53.940Z,100075.06
2023-04-20T07:21:56.965Z,100067.91
2023-04-20T07:26:59.988Z,100069.50
2023-04-20T07:32:02.946Z,100069.13
2023-04-20T07:37:06.211Z,100069.25
2023-04-20T07:42:09.345Z,100068.44
2023-04-20T07:47:12.319Z,100077.56
2023-04-20T07:52:16.853Z,100069.31
2023-04-20T07:57:21.242Z,100074.72
2023-04-20T08:02:24.682Z,100059.66
2023-04-20T08:07:28.221Z,100068.91
2023-04-20T08:12:31.232Z,100067.22
2023-04-20T08:17:34.907Z,100070.94
2023-04-20T08:22:39.339Z,100076.09
2023-04-20T08:27:42.379Z,100068.53
2023-04-20T08:32:45.817Z,100061.72
2023-04-20T08:37:49.361Z,100066.06
2023-04-20T08:42:53.025Z,100054.69
2023-04-20T08:47:59.175Z,100056.03
2023-04-20T08:53:03.486Z,100048.84
2023-04-20T08:58:06.512Z,100055.88
2023-04-20T09:03:09.600Z,100051.13
2023-04-20T09:08:12.724Z,100049.81
2023-04-20T09:13:23.379Z,100047.63
2023-04-20T09:18:26.367Z,100035.06
2023-04-20T09:23:29.310Z,100041.53
2023-04-20T09:28:39.266Z,100037.63
2023-04-20T09:33:42.218Z,100030.72
2023-04-20T09:38:45.692Z,100034.81
2023-04-20T09:43:48.893Z,100033.66
2023-04-20T09:48:52.158Z,100024.44
2023-04-20T09:54:01.186Z,100016.50
2023-04-20T09:59:04.909Z,100017.75
2023-04-20T10:04:11.071Z,100010.44
2023-04-20T10:09:25.920Z,99999.72
2023-04-20T10:14:29.288Z,99999.53
2023-04-20T10:19:43.751Z,99994.34
2023-04-20T10:24:47.162Z,99998.38
2023-04-20T10:29:50.209Z,99990.97
2023-04-20T10:35:08.768Z,99981.13
2023-04-20T10:40:13.148Z,99981.09
2023-04-20T10:45:16.201Z,99987.31
2023-04-20T10:50:19.613Z,99981.47
2023-04-20T10:55:25.890Z,99979.81
2023-04-20T11:00:30.914Z,99964.66
2023-04-20T11:05:33.713Z,99963.28
2023-04-20T11:10:42.296Z,99966.50
2023-04-20T11:15:45.345Z,99965.84
2023-04-20T11:20:54.046Z,99958.25
2023-04-20T11:25:57.529Z,99939.53
2023-04-20T11:31:01.098Z,99951.44
2023-04-20T11:36:04.506Z,99942.59
2023-04-20T11:41:07.974Z,99947.41
2023-04-20T11:46:20.482Z,99942.75
2023-04-20T11:51:23.560Z,99938.31
2023-04-20T11:56:26.611Z,99942.66
2023-04-20T12:01:29.862Z,99933.84
2023-04-20T12:06:33.350Z,99931.53
2023-04-20T12:11:36.615Z,99936.25
2023-04-20T12:16:39.626Z,99938.38
2023-04-20T12:21:42.594Z,99932.50
2023-04-20T12:26:46.031Z,99931.75
2023-04-20T12:31:49.061Z,99935.41
2023-04-20T12:36:52.114Z,99936.38
2023-04-20T12:41:55.578Z,99930.44
2023-04-20T12:46:58.569Z,99940.91
2023-04-20T12:52:01.606Z,99927.19
2023-04-20T12:57:04.940Z,99917.00
2023-04-20T13:02:07.888Z,99908.53
2023-04-20T13:07:12.021Z,99908.06
2023-04-20T13:12:15.224Z,99901.75
2023-04-20T13:17:18.447Z,99900.09
2023-04-20T13:22:21.526Z,99892.06
2023-04-20T13:27:25.574Z,99896.59
2023-04-20T13:32:28.992Z,99896.94
2023-04-20T13:37:33.343Z,99893.13
2023-04-20T13:42:36.598Z,99887.03
2023-04-20T13:47:40.623Z,99877.13
2023-04-20T13:52:43.659Z,99865.50
2023-04-20T13:57:47.252Z,99863.94
2023-04-20T14:02:50.320Z,99864.25
2023-04-20T14:07:53.345Z,99857.97
2023-04-20T14:12:56.640Z,99854.94
2023-04-20T14:18:00.595Z,99840.75
2023-04-20T14:23:03.582Z,99837.50
2023-04-20T14:28:06.948Z,99844.72
2023-04-20T14:33:09.848Z,99840.06
2023-04-20T14:38:12.648Z,99839.25
2023-04-20T14:43:16.314Z,99838.09
2023-04-20T14:48:19.339Z,99838.88
2023-04-20T14:53:22.475Z,99835.97
2023-04-20T14:58:25.546Z,99829.97
2023-04-20T15:03:29.017Z,99823.75
2023-04-20T15:08:32.263Z,99830.00
2023-04-20T15:13:35.371Z,99827.31
2023-04-20T15:18:38.327Z,99832.16
2023-04-20T15:23:41.130Z,99830.03
2023-04-20T15:28:45.190Z,99834.88
2023-04-20T15:33:48.469Z,99838.41
2023-04-20T15:38:54.551Z,99842.91
2023-04-20T15:43:59.202Z,99838.41
2023-04-20T15:49:02.243Z,99841.78
2023-04-20T15:54:06.102Z,99861.44
2023-04-20T15:59:09.125Z,99848.53
2023-04-20T16:04:12.208Z,99862.56
2023-04-20T16:09:15.617Z,99859.75
2023-04-20T16:14:18.873Z,99871.34
2023-04-20T16:19:22.002Z,99864.66
2023-04-20T16:24:25.549Z,99874.25
2023-04-20T16:29:29.006Z,99901.34
2023-04-20T16:34:32.052Z,99914.47
2023-04-20T16:39:35.400Z,99910.78
2023-04-20T16:44:41.564Z,99924.19
2023-04-20T16:49:44.954Z,99923.91
2023-04-20T16:54:48.194Z,99918.41
2023-04-20T16:59:51.166Z,99917.81
2023-04-20T17:04:54.169Z,99927.53
2023-04-20T17:09:57.462Z,99937.22
2023-04-20T17:15:00.955Z,99934.31
2023-04-20T17:20:07.156Z,99923.53
2023-04-20T17:25:10.468Z,99896.97
2023-04-20T17:30:14.232Z,99909.91
2023-04-20T17:35:17.809Z,99929.50
2023-04-20T17:40:20.929Z,99940.00
2023-04-20T17:45:24.177Z,99944.31
2023-04-20T17:50:27.164Z,99954.63
2023-04-20T17:55:30.922Z,99958.75
2023-04-20T18:00:33.760Z,99960.16
2023-04-20T18:05:36.896Z,99963.88
2023-04-20T18:10:40.241Z,99977.00
2023-04-20T18:15:43.786Z,99975.59
2023-04-20T18:20:48.145Z,99981.31
2023-04-20T18:25:53.413Z,99993.84
2023-04-20T18:30:58.806Z,100008.41
2023-04-20T18:36:02.009Z,100019.63
2023-04-20T18:41:05.289Z,100026.78
2023-04-20T18:46:08.970Z,100039.66
2023-04-20T18:51:12.175Z,100039.44
2023-04-20T18:56:15.226Z,100052.13
2023-04-20T19:01:18.315Z,100050.22
2023-04-20T19:06:24.049Z,100045.56
2023-04-20T19:11:28.954Z,100049.88
2023-04-20T19:16:33.546Z,100044.44
2023-04-20T19:21:36.643Z,100047.25
2023-04-20T19:26:40.041Z,100051.09
2023-04-20T19:31:42.950Z,100061.25
2023-04-20T19:36:45.902Z,100056.41
2023-04-20T19:41:48.951Z,100061.69
2023-04-20T19:46:52.146Z,100057.38
2023-04-20T19:51:54.956Z,100061.44
2023-04-20T19:56:58.086Z,100066.03
2023-04-20T20:02:01.225Z,100067.34
2023-04-20T20:07:04.417Z,100071.50
2023-04-20T20:12:10.832Z,100071.97
2023-04-20T20:17:15.172Z,100073.44
2023-04-20T20:22:19.594Z,100074.91
2023-04-20T20:27:22.657Z,100073.34
2023-04-20T20:32:26.045Z,100074.63
2023-04-20T20:37:34.668Z,100081.22
2023-04-20T20:42:40.103Z,100081.63
2023-04-20T20:47:45.323Z,100091.72
2023-04-20T20:52:49.222Z,100085.81
2023-04-20T20:57:52.339Z,100086.38
2023-04-20T21:02:55.346Z,100093.13
2023-04-20T21:07:58.438Z,100097.66
2023-04-20T21:13:01.469Z,100099.38
2023-04-20T21:18:04.617Z,100104.38
2023-04-20T21:23:07.732Z,100102.09
2023-04-20T21:28:10.838Z,100109.72
2023-04-20T21:33:13.905Z,100107.72
2023-04-20T21:38:16.751Z,100108.84
2023-04-20T21:43:19.768Z,100108.00
2023-04-20T21:48:23.031Z,100104.50
2023-04-20T21:53:26.242Z,100114.50
2023-04-20T21:58:29.481Z,100108.06
2023-04-20T22:03:35.182Z,100107.75
2023-04-20T22:08:40.140Z,100112.59
2023-04-20T22:13:44.192Z,100114.97
2023-04-20T22:18:48.068Z,100107.50
2023-04-20T22:23:51.068Z,100103.69
2023-04-20T22:28:53.804Z,100109.38
2023-04-20T22:33:56.716Z,100103.06
2023-04-20T22:38:59.678Z,100112.41
2023-04-20T22:44:02.703Z,100108.13
2023-04-20T22:49:07.051Z,100099.69
2023-04-20T22:54:09.909Z,100101.03
2023-04-20T22:59:12.976Z,100088.59
2023-04-20T23:04:16.308Z,100094.44
2023-04-20T23:09:20.747Z,100097.09
2023-04-20T23:14:24.574Z,100092.13
2023-04-20T23:19:28.429Z,100092.66
2023-04-20T23:24:31.332Z,100091.31
2023-04-20T23:29:34.447Z,100092.66
2023-04-20T23:34:37.396Z,100093.16
2023-04-20T23:39:40.452Z,100095.97
2023-04-20T23:44:43.317Z,100098.81
2023-04-20T23:49:47.103Z,100105.59
2023-04-20T23:54:49.946Z,100104.59
2023-04-20T23:59:52.843Z,100105.09
